Time;durP1;ratioP1;P1;durP2;ratioP2;P2;SDS_P1;SDS_P2;PMS_P1;PMS_P2;Temp;Humidity;BMP_temperature;BMP_pressure;BME280_temperature;BME280_humidity;BME280_pressure;Samples;Min_cycle;Max_cycle;Signal;HPM_P1;HPM_P2
2023/01/07 00:01:47;;;;;;;1.90;0.93;;;;;;;10.72;82.18;100607.59;10350671;28;20049;-56
2023/01/07 00:06:49;;;;;;;2.47;1.20;;;;;;;10.72;82.37;100611.13;10341721;28;20053;-56
2023/01/07 00:11:50;;;;;;;1.63;0.82;;;;;;;10.78;81.72;100607.16;10357138;28;20109;-57
2023/01/07 00:16:51;;;;;;;1.13;0.98;;;;;;;10.77;81.77;100605.44;10349541;28;20054;-57
2023/01/07 00:21:53;;;;;;;2.13;0.75;;;;;;;10.68;81.84;100591.00;10330959;28;20037;-57
2023/01/07 00:26:55;;;;;;;1.80;1.15;;;;;;;10.73;82.04;100586.22;10349260;28;20079;-56
2023/01/07 00:31:57;;;;;;;1.23;1.00;;;;;;;10.81;81.62;100584.75;10347994;28;20272;-57
2023/01/07 00:47:40;;;;;;;1.48;1.00;;;;;;;10.68;81.27;100575.03;10339426;28;20044;-56
2023/01/07 00:52:42;;;;;;;0.95;0.82;;;;;;;10.75;81.39;100572.78;10346815;28;20043;-57
2023/01/07 00:57:44;;;;;;;2.35;0.95;;;;;;;10.71;81.14;100569.47;10333299;28;20139;-57
2023/01/07 01:02:46;;;;;;;2.70;1.08;;;;;;;10.76;81.40;100558.47;10345013;28;20088;-57
2023/01/07 01:07:48;;;;;;;2.22;1.02;;;;;;;10.66;81.35;100555.69;10343262;28;20050;-56
2023/01/07 01:12:49;;;;;;;1.02;0.90;;;;;;;10.69;81.50;100547.47;10341986;28;21465;-56
2023/01/07 01:17:51;;;;;;;1.30;1.00;;;;;;;10.61;81.50;100552.50;10349038;28;20698;-57
2023/01/07 01:22:53;;;;;;;1.42;0.88;;;;;;;10.66;81.33;100544.16;10347792;28;20073;-57
2023/01/07 01:27:54;;;;;;;2.35;0.63;;;;;;;10.71;81.21;100542.03;10349681;28;20718;-57
2023/01/07 01:32:56;;;;;;;2.03;1.00;;;;;;;10.68;81.63;100544.91;10347241;28;20061;-57
2023/01/07 01:37:59;;;;;;;0.80;0.60;;;;;;;10.72;81.46;100549.88;10347983;28;20519;-57
2023/01/07 01:43:01;;;;;;;1.90;0.70;;;;;;;10.72;81.20;100543.69;10352872;28;20149;-57
2023/01/07 01:48:06;;;;;;;1.67;0.60;;;;;;;10.72;81.39;100541.03;10346464;28;20057;-57
2023/01/07 01:53:13;;;;;;;;;;;;;;;10.73;81.40;100532.97;10353274;28;20126;-57
2023/01/07 01:58:18;;;;;;;1.52;0.60;;;;;;;10.72;81.54;100530.38;10352014;28;19980;-57
2023/01/07 02:03:24;;;;;;;1.20;0.60;;;;;;;10.76;81.56;100526.53;10344633;28;20049;-56
2023/01/07 02:08:25;;;;;;;2.25;0.70;;;;;;;10.78;81.48;100521.94;10361353;28;20063;-57
2023/01/07 02:13:40;;;;;;;2.33;0.70;;;;;;;10.80;81.25;100520.00;10345165;28;20130;-56
2023/01/07 02:19:05;;;;;;;3.08;1.08;;;;;;;10.80;81.26;100514.69;10339745;28;20053;-56
2023/01/07 02:24:53;;;;;;;1.20;0.80;;;;;;;10.85;81.07;100515.16;10345555;28;20088;-56
2023/01/07 02:30:25;;;;;;;0.88;0.68;;;;;;;10.82;81.20;100515.41;10348210;28;20358;-57
2023/01/07 02:35:29;;;;;;;1.80;0.70;;;;;;;10.80;81.04;100506.69;10348400;28;20147;-57
2023/01/07 02:40:42;;;;;;;0.95;0.80;;;;;;;10.85;81.00;100507.16;10352492;28;20056;-57
2023/01/07 02:45:55;;;;;;;1.23;0.85;;;;;;;10.93;80.88;100494.13;10346459;28;20362;-58
2023/01/07 02:50:57;;;;;;;1.00;0.65;;;;;;;10.99;80.34;100497.25;10355756;28;20050;-58
2023/01/07 02:56:32;;;;;;;1.38;0.85;;;;;;;10.99;80.27;100492.81;10346140;28;20058;-58
2023/01/07 03:02:02;;;;;;;1.50;0.90;;;;;;;11.02;79.83;100491.69;10351815;28;20124;-58
2023/01/07 03:07:12;;;;;;;2.15;0.88;;;;;;;11.02;79.40;100484.56;10345378;28;20052;-58
2023/01/07 03:12:28;;;;;;;1.40;1.00;;;;;;;11.01;79.08;100485.53;10346965;28;20037;-58
2023/01/07 03:17:37;;;;;;;1.33;0.93;;;;;;;10.93;79.29;100475.47;10351741;28;20636;-58
2023/01/07 03:22:41;;;;;;;2.00;1.05;;;;;;;10.90;78.86;100467.72;10350364;28;20050;-58
2023/01/07 03:27:45;;;;;;;1.27;1.17;;;;;;;10.93;79.10;100467.47;10347686;28;20088;-58
2023/01/07 03:32:59;;;;;;;1.20;0.98;;;;;;;10.98;78.91;100479.59;10343793;28;20108;-58
2023/01/07 03:38:03;;;;;;;2.97;1.20;;;;;;;10.87;78.72;100478.63;10358527;28;20717;-58
2023/01/07 03:43:11;;;;;;;2.35;1.10;;;;;;;10.91;78.45;100474.75;10349425;28;20053;-58
2023/01/07 03:48:13;;;;;;;2.25;1.10;;;;;;;10.83;78.62;100469.16;10349845;28;20601;-58
2023/01/07 03:53:14;;;;;;;1.55;1.00;;;;;;;10.87;78.45;100459.13;10350975;28;20102;-58
2023/01/07 03:58:15;;;;;;;2.75;1.80;;;;;;;10.90;77.95;100457.06;10348749;28;20141;-58
2023/01/07 04:03:17;;;;;;;2.38;1.40;;;;;;;10.96;77.89;100459.25;10351122;28;20332;-57
2023/01/07 04:08:19;;;;;;;1.85;1.40;;;;;;;10.94;77.73;100447.88;10351125;28;20690;-59
2023/01/07 04:13:20;;;;;;;2.90;1.55;;;;;;;10.86;77.58;100441.47;10364202;28;20041;-58
2023/01/07 04:18:21;;;;;;;2.03;1.27;;;;;;;10.83;78.05;100434.56;10350924;28;20060;-58
2023/01/07 04:23:23;;;;;;;2.42;1.45;;;;;;;10.87;77.58;100435.16;10345834;28;20191;-57
2023/01/07 04:28:25;;;;;;;2.30;1.60;;;;;;;10.92;77.70;100423.16;10337418;28;20125;-58
2023/01/07 04:33:26;;;;;;;3.58;1.77;;;;;;;10.87;77.31;100422.69;10354526;28;20522;-58
2023/01/07 04:38:27;;;;;;;3.45;1.27;;;;;;;10.87;77.35;100413.84;10346972;28;20046;-58
2023/01/07 04:43:30;;;;;;;2.72;1.73;;;;;;;10.85;77.38;100416.63;10351103;28;20175;-62
2023/01/07 04:48:32;;;;;;;2.13;1.60;;;;;;;10.82;77.45;100413.38;10338436;28;20041;-59
2023/01/07 04:53:33;;;;;;;3.05;1.88;;;;;;;10.88;77.26;100405.72;10349322;28;20066;-58
2023/01/07 04:58:35;;;;;;;3.10;1.88;;;;;;;10.87;76.62;100401.41;10343231;28;20852;-59
2023/01/07 05:03:36;;;;;;;2.45;1.70;;;;;;;10.91;77.00;100391.34;10340464;28;20050;-58
2023/01/07 05:08:38;;;;;;;4.07;1.77;;;;;;;10.87;77.07;100372.09;10347430;28;20802;-57
2023/01/07 05:13:39;;;;;;;2.50;2.03;;;;;;;10.90;76.89;100377.19;10355622;28;20969;-58
2023/01/07 05:18:41;;;;;;;3.38;1.90;;;;;;;10.93;77.08;100376.09;10351000;28;20041;-58
2023/01/07 05:23:43;;;;;;;3.97;2.38;;;;;;;10.90;77.25;100366.53;10357354;28;20060;-61
2023/01/07 05:28:45;;;;;;;2.90;2.08;;;;;;;10.91;77.13;100372.69;10366172;28;20246;-58
2023/01/07 05:33:46;;;;;;;2.20;1.40;;;;;;;10.88;77.45;100363.13;10360119;28;20645;-57
2023/01/07 05:38:48;;;;;;;3.70;1.42;;;;;;;10.89;77.74;100356.00;10359319;28;20069;-57
2023/01/07 05:43:49;;;;;;;1.17;0.80;;;;;;;10.93;77.78;100360.94;10353401;28;20060;-57
2023/01/07 05:48:53;;;;;;;1.95;1.52;;;;;;;10.88;78.26;100352.47;10350161;28;20051;-57
2023/01/07 05:53:54;;;;;;;2.08;1.00;;;;;;;10.85;78.48;100342.06;10357063;28;20089;-57
2023/01/07 05:58:56;;;;;;;3.22;1.35;;;;;;;10.87;78.00;100340.16;10351821;28;20056;-57
2023/01/07 06:03:57;;;;;;;1.17;0.90;;;;;;;10.88;78.12;100340.97;10359065;28;20121;-57
2023/01/07 06:08:58;;;;;;;1.30;1.00;;;;;;;10.89;78.05;100332.03;10352945;28;20698;-57
2023/01/07 06:14:00;;;;;;;1.42;1.02;;;;;;;10.85;78.09;100331.41;10349896;28;20653;-58
2023/01/07 06:19:01;;;;;;;2.55;1.20;;;;;;;10.82;78.42;100323.66;10350347;28;20504;-60
2023/01/07 06:24:03;;;;;;;1.65;1.15;;;;;;;10.85;78.32;100326.09;10337675;28;20060;-59
2023/01/07 06:29:04;;;;;;;1.60;1.20;;;;;;;10.90;78.12;100325.72;10362551;28;20502;-57
2023/01/07 06:34:06;;;;;;;2.42;1.27;;;;;;;10.85;77.98;100314.59;10348112;28;20732;-57
2023/01/07 06:39:10;;;;;;;2.72;1.20;;;;;;;10.83;78.17;100306.72;10357858;28;20193;-57
2023/01/07 06:44:13;;;;;;;2.92;1.00;;;;;;;10.81;78.13;100298.03;10348656;28;20518;-58
2023/01/07 06:49:15;;;;;;;1.50;1.40;;;;;;;10.80;77.88;100285.69;10346154;28;20053;-57
2023/01/07 06:54:16;;;;;;;3.15;0.90;;;;;;;10.83;77.61;100289.94;10364264;28;20085;-57
2023/01/07 06:59:18;;;;;;;1.75;1.08;;;;;;;10.82;77.50;100281.06;10352999;28;20583;-57
2023/01/07 07:04:19;;;;;;;1.50;0.90;;;;;;;10.82;77.19;100278.41;10343483;28;20502;-57
2023/01/07 07:09:21;;;;;;;1.15;0.82;;;;;;;10.81;76.94;100274.06;10340516;28;20134;-57
2023/01/07 07:14:22;;;;;;;1.38;1.05;;;;;;;10.82;76.98;100270.41;10353281;28;20917;-57
2023/01/07 07:19:25;;;;;;;1.75;0.68;;;;;;;10.82;76.70;100267.75;10354350;28;20089;-62
2023/01/07 07:24:28;;;;;;;1.90;1.02;;;;;;;10.85;76.64;100264.00;10348691;28;20059;-57
2023/01/07 07:29:29;;;;;;;1.02;0.63;;;;;;;10.81;76.69;100252.78;10344295;28;20595;-58
2023/01/07 07:34:31;;;;;;;3.00;0.73;;;;;;;10.82;76.52;100265.09;10350639;28;20180;-58
2023/01/07 07:39:35;;;;;;;1.52;1.08;;;;;;;10.89;76.66;100263.63;10348975;28;20841;-57
2023/01/07 07:44:36;;;;;;;1.83;0.90;;;;;;;10.91;76.50;100255.50;10347542;28;20663;-57
2023/01/07 07:49:38;;;;;;;3.20;1.52;;;;;;;10.97;75.91;100257.66;10358786;28;20989;-57
2023/01/07 07:54:39;;;;;;;2.05;1.23;;;;;;;10.92;74.84;100249.22;10359729;28;20053;-57
2023/01/07 07:59:41;;;;;;;2.55;1.38;;;;;;;10.80;74.86;100243.09;10356508;28;20087;-57
2023/01/07 08:04:42;;;;;;;1.75;0.80;;;;;;;10.76;74.28;100241.63;10349413;28;20155;-57
2023/01/07 08:09:44;;;;;;;2.35;1.30;;;;;;;10.88;73.99;100245.94;10349946;28;20070;-57
2023/01/07 08:14:45;;;;;;;2.72;0.90;;;;;;;10.86;74.27;100231.91;10348974;28;20084;-61
2023/01/07 08:19:50;;;;;;;0.85;0.57;;;;;;;10.82;73.21;100235.81;10348229;28;20422;-58
2023/01/07 08:24:52;;;;;;;0.90;0.60;;;;;;;10.75;73.61;100223.97;10327392;28;20060;-60
2023/01/07 08:29:54;;;;;;;1.15;0.68;;;;;;;10.72;73.46;100222.41;10341709;28;20049;-57
2023/01/07 08:34:56;;;;;;;2.22;0.80;;;;;;;10.75;73.28;100224.81;10347691;28;20159;-57
2023/01/07 08:39:58;;;;;;;0.93;0.73;;;;;;;10.72;72.74;100214.44;10344965;28;20559;-58
2023/01/07 08:44:59;;;;;;;0.57;0.50;;;;;;;10.73;72.95;100215.25;10351606;28;20060;-57
2023/01/07 08:50:02;;;;;;;0.95;0.50;;;;;;;10.80;72.63;100205.81;10348212;28;20892;-58
2023/01/07 08:55:04;;;;;;;0.82;0.60;;;;;;;10.82;71.87;100203.00;10352529;28;20056;-58
2023/01/07 09:00:06;;;;;;;1.23;0.40;;;;;;;10.75;71.29;100202.69;10342351;28;20061;-65
2023/01/07 09:05:09;;;;;;;1.02;0.52;;;;;;;10.75;70.97;100195.53;10356332;28;20600;-58
2023/01/07 09:10:12;;;;;;;0.70;0.40;;;;;;;10.83;70.81;100196.72;10327619;28;20077;-63
2023/01/07 09:15:13;;;;;;;1.88;0.40;;;;;;;10.72;70.99;100182.47;10349813;28;20045;-58
2023/01/07 09:20:15;;;;;;;1.35;0.65;;;;;;;10.80;71.08;100184.50;10361516;28;20091;-58
2023/01/07 09:25:16;;;;;;;1.52;0.52;;;;;;;10.82;70.51;100187.03;10357456;28;20048;-58
2023/01/07 09:30:18;;;;;;;0.70;0.40;;;;;;;10.83;69.93;100184.25;10349309;28;20054;-58
2023/01/07 09:35:19;;;;;;;0.90;0.30;;;;;;;10.87;70.08;100177.69;10338609;28;20064;-58
2023/01/07 09:40:35;;;;;;;1.95;0.75;;;;;;;10.94;70.25;100178.88;10355418;28;20073;-58
2023/01/07 09:45:41;;;;;;;2.60;0.70;;;;;;;10.94;70.47;100160.25;10357220;28;20580;-58
2023/01/07 09:50:49;;;;;;;1.05;0.60;;;;;;;10.99;70.23;100161.66;10370489;28;20057;-58
2023/01/07 09:55:52;;;;;;;0.80;0.70;;;;;;;10.97;69.99;100156.47;10356164;28;20052;-58
2023/01/07 10:01:28;;;;;;;1.17;0.45;;;;;;;10.93;69.67;100155.88;10347416;28;20045;-57
2023/01/07 10:06:57;;;;;;;0.90;0.40;;;;;;;11.01;70.23;100152.56;10354054;28;20497;-57
2023/01/07 10:12:24;;;;;;;1.08;0.45;;;;;;;11.11;69.93;100144.66;10349616;28;20049;-57
2023/01/07 10:18:13;;;;;;;0.90;0.50;;;;;;;11.09;69.90;100135.94;10355581;28;20049;-58
2023/01/07 10:23:24;;;;;;;1.52;0.73;;;;;;;11.11;70.07;100129.50;10365673;28;20596;-57
2023/01/07 10:28:33;;;;;;;2.05;0.88;;;;;;;11.27;69.96;100128.19;10340003;28;20127;-57
2023/01/07 10:33:34;;;;;;;2.20;0.80;;;;;;;11.35;68.96;100127.53;10354088;28;20050;-57
2023/01/07 10:38:40;;;;;;;3.33;1.60;;;;;;;11.30;69.20;100111.94;10352892;28;20053;-57
2023/01/07 10:43:51;;;;;;;1.45;1.15;;;;;;;11.30;68.03;100104.81;10343219;28;20044;-58
2023/01/07 10:49:11;;;;;;;1.85;0.90;;;;;;;11.35;68.14;100093.75;10351305;28;20056;-57
2023/01/07 10:54:31;;;;;;;1.10;0.60;;;;;;;11.57;67.98;100076.72;10347378;28;20052;-57
2023/01/07 10:59:35;;;;;;;1.60;0.93;;;;;;;11.79;67.16;100070.34;10348524;28;20045;-57
2023/01/07 11:04:36;;;;;;;1.83;1.08;;;;;;;11.95;66.52;100059.22;10342501;28;20163;-57
2023/01/07 11:09:43;;;;;;;1.42;1.10;;;;;;;11.95;66.07;100053.00;10346526;28;20156;-57
2023/01/07 11:14:47;;;;;;;1.20;0.80;;;;;;;11.79;66.15;100054.34;10342436;28;20048;-57
2023/01/07 11:19:52;;;;;;;1.33;0.85;;;;;;;11.91;65.86;100048.91;10352551;28;20123;-57
2023/01/07 11:24:55;;;;;;;1.98;0.80;;;;;;;12.02;65.22;100027.47;10360930;28;20061;-57
2023/01/07 11:30:12;;;;;;;1.58;0.90;;;;;;;12.02;64.59;100015.00;10330566;28;20144;-59
2023/01/07 11:35:16;;;;;;;0.85;0.80;;;;;;;12.10;64.29;100002.78;10343818;28;20734;-57
2023/01/07 11:40:26;;;;;;;1.27;0.68;;;;;;;12.01;63.57;99996.47;10333829;28;20049;-57
2023/01/07 11:45:36;;;;;;;3.50;0.68;;;;;;;11.91;64.55;99971.56;10364397;28;20144;-60
2023/01/07 11:50:53;;;;;;;1.33;0.70;;;;;;;11.82;63.96;99967.91;10350029;28;20053;-57
2023/01/07 11:55:56;;;;;;;2.20;2.00;;;;;;;11.83;64.08;99961.59;10344797;28;20061;-57
2023/01/07 12:01:16;;;;;;;1.95;0.50;;;;;;;11.90;63.58;99946.72;10313262;28;20597;-57
2023/01/07 12:06:30;;;;;;;0.90;0.55;;;;;;;11.74;62.42;99939.28;10318917;28;20132;-57
2023/01/07 12:11:36;;;;;;;0.70;0.50;;;;;;;11.73;61.37;99936.75;10323743;28;20132;-57
2023/01/07 12:16:37;;;;;;;1.33;0.40;;;;;;;11.67;61.67;99914.16;10326373;28;20076;-57
2023/01/07 12:21:41;;;;;;;0.85;0.50;;;;;;;11.67;61.47;99911.47;10319293;28;20053;-57
2023/01/07 12:27:11;;;;;;;2.70;1.00;;;;;;;11.63;61.43;99910.94;10320578;28;20510;-57
2023/01/07 12:32:25;;;;;;;1.13;0.50;;;;;;;11.58;61.25;99902.47;10322287;28;20123;-57
2023/01/07 12:37:57;;;;;;;0.70;0.38;;;;;;;11.53;61.40;99891.41;10326291;28;20077;-57
2023/01/07 12:43:11;;;;;;;1.02;0.47;;;;;;;11.50;61.60;99889.03;10333913;28;20057;-57
2023/01/07 12:48:25;;;;;;;0.67;0.40;;;;;;;11.48;61.62;99880.28;10330644;28;20732;-57
2023/01/07 12:53:39;;;;;;;1.50;0.75;;;;;;;11.42;61.80;99880.84;10341020;28;20060;-56
2023/01/07 12:58:49;;;;;;;1.40;0.40;;;;;;;11.42;62.08;99871.03;10336197;28;20053;-58
2023/01/07 13:03:59;;;;;;;1.58;0.50;;;;;;;11.43;61.86;99855.91;10327533;28;20045;-57
2023/01/07 13:09:11;;;;;;;1.02;0.55;;;;;;;11.43;62.05;99853.22;10335085;28;20617;-57
2023/01/07 13:14:26;;;;;;;1.98;1.00;;;;;;;11.37;61.58;99849.28;10335263;28;20046;-57
2023/01/07 13:19:27;;;;;;;1.30;1.00;;;;;;;11.32;61.87;99844.38;10337939;28;20088;-61
2023/01/07 13:25:00;;;;;;;2.10;0.85;;;;;;;11.26;61.64;99844.06;10333433;28;20059;-58
2023/01/07 13:30:14;;;;;;;1.52;0.90;;;;;;;11.31;62.01;99825.88;10308806;28;20955;-56
2023/01/07 13:35:41;;;;;;;1.70;1.20;;;;;;;11.35;61.89;99831.75;10331890;28;20057;-56
2023/01/07 13:40:58;;;;;;;1.63;0.95;;;;;;;11.38;62.23;99820.81;10341685;28;20076;-57
2023/01/07 13:46:06;;;;;;;;;;;;;;;11.26;61.72;99822.75;10332624;28;20161;-61
2023/01/07 13:51:09;;;;;;;2.75;0.98;;;;;;;11.26;61.76;99817.44;10344504;28;19936;-56
2023/01/07 13:56:16;;;;;;;1.33;0.95;;;;;;;11.21;61.83;99817.03;10330693;28;20054;-57
2023/01/07 14:01:24;;;;;;;1.02;0.65;;;;;;;11.19;62.02;99822.47;10336462;28;20045;-57
2023/01/07 14:06:37;;;;;;;2.90;1.00;;;;;;;11.19;62.18;99822.47;10342199;28;20053;-56
2023/01/07 14:12:21;;;;;;;2.28;1.33;;;;;;;11.15;61.94;99815.75;10334498;28;20329;-57
2023/01/07 14:17:48;;;;;;;1.02;0.60;;;;;;;11.16;62.14;99811.28;10311181;28;20053;-57
2023/01/07 14:23:18;;;;;;;3.08;0.80;;;;;;;11.24;62.12;99806.91;10334241;28;20739;-59
2023/01/07 14:28:53;;;;;;;2.55;1.58;;;;;;;11.24;62.15;99804.25;10342182;28;20076;-60
2023/01/07 14:33:59;;;;;;;1.05;0.70;;;;;;;11.28;61.82;99800.34;10334565;28;20049;-56
2023/01/07 14:39:01;;;;;;;1.05;0.68;;;;;;;11.23;62.09;99797.25;10332402;28;20077;-57
2023/01/07 14:44:24;;;;;;;1.08;0.77;;;;;;;11.18;61.76;99796.81;10338296;28;20106;-57
2023/01/07 14:49:44;;;;;;;1.05;0.90;;;;;;;11.15;61.91;99778.44;10326509;28;20376;-57
2023/01/07 14:55:16;;;;;;;1.50;0.90;;;;;;;11.22;61.77;99776.91;10324594;28;20060;-57
2023/01/07 15:00:42;;;;;;;1.30;0.90;;;;;;;11.25;61.94;99779.31;10328298;28;20046;-60
2023/01/07 15:05:50;;;;;;;1.65;1.02;;;;;;;11.17;61.99;99771.19;10329621;28;20526;-56
2023/01/07 15:16:20;;;;;;;1.40;1.30;;;;;;;11.26;61.52;99764.16;10330323;28;20183;-57
2023/01/07 15:21:32;;;;;;;1.50;1.07;;;;;;;11.21;61.82;99758.41;10314488;28;20053;-60
2023/01/07 15:26:42;;;;;;;2.00;1.13;;;;;;;11.15;61.94;99757.13;10321043;28;20378;-57
2023/01/07 15:32:25;;;;;;;1.75;1.10;;;;;;;11.21;62.12;99761.91;10339531;28;20050;-60
2023/01/07 15:37:27;;;;;;;1.83;1.10;;;;;;;11.23;62.26;99765.28;10324053;28;20052;-60
2023/01/07 15:42:28;;;;;;;2.00;0.85;;;;;;;11.29;61.89;99770.06;10339231;28;20052;-60
2023/01/07 15:47:48;;;;;;;1.55;1.42;;;;;;;11.30;62.03;99761.09;10335019;28;20453;-60
2023/01/07 15:52:52;;;;;;;2.10;0.82;;;;;;;11.19;61.99;99752.41;10328586;28;20481;-59
2023/01/07 15:58:00;;;;;;;2.40;1.25;;;;;;;11.16;62.34;99756.16;10329374;28;20128;-60
2023/01/07 16:03:03;;;;;;;1.33;1.10;;;;;;;11.13;62.45;99756.44;10319796;28;20065;-60
2023/01/07 16:08:15;;;;;;;1.98;1.23;;;;;;;11.14;62.60;99755.47;10327284;28;20413;-59
2023/01/07 16:13:17;;;;;;;1.50;1.30;;;;;;;11.18;62.69;99753.38;10328616;28;20045;-60
2023/01/07 16:18:19;;;;;;;3.33;1.50;;;;;;;11.16;62.42;99756.16;10339235;28;20060;-66
2023/01/07 16:23:24;;;;;;;1.50;1.25;;;;;;;11.19;63.02;99747.91;10354268;28;20331;-61
2023/01/07 16:28:37;;;;;;;1.77;1.48;;;;;;;11.25;62.71;99747.31;10326848;28;20100;-60
2023/01/07 16:33:41;;;;;;;2.33;1.45;;;;;;;11.25;62.49;99736.69;10332630;28;20050;-60
2023/01/07 16:38:50;;;;;;;2.37;2.00;;;;;;;11.24;62.58;99729.66;10327950;28;20125;-60
2023/01/07 16:43:54;;;;;;;132.25;117.45;;;;;;;11.23;62.96;99720.00;10339044;28;20288;-61
2023/01/07 16:49:07;;;;;;;6.03;5.15;;;;;;;11.24;62.82;99713.66;10339911;28;20053;-66
2023/01/07 16:54:24;;;;;;;3.87;3.53;;;;;;;11.23;62.81;99721.81;10332782;28;20052;-60
2023/01/07 16:59:33;;;;;;;3.25;3.00;;;;;;;11.11;63.57;99719.28;10339494;28;20073;-62
2023/01/07 17:04:34;;;;;;;5.22;2.45;;;;;;;11.11;64.36;99713.13;10326668;28;20600;-60
2023/01/07 17:09:37;;;;;;;2.45;1.60;;;;;;;10.96;64.55;99702.88;10329428;28;21169;-61
2023/01/07 17:14:45;;;;;;;6.72;6.22;;;;;;;10.73;65.75;99704.97;10346564;28;20080;-60
2023/01/07 17:20:17;;;;;;;2.80;2.58;;;;;;;10.63;66.63;99695.28;10342199;28;20061;-60
2023/01/07 17:25:27;;;;;;;2.50;2.30;;;;;;;10.51;67.00;99689.22;10335734;28;20123;-64
2023/01/07 17:30:34;;;;;;;3.28;2.80;;;;;;;10.45;67.29;99680.00;10319190;28;20089;-61
2023/01/07 17:35:43;;;;;;;2.78;1.80;;;;;;;10.35;67.82;99674.63;10341702;28;20091;-61
2023/01/07 17:40:45;;;;;;;3.15;2.00;;;;;;;10.23;68.31;99670.38;10313158;28;20785;-61
2023/01/07 17:45:49;;;;;;;2.55;2.35;;;;;;;10.14;68.59;99672.03;10328453;28;20045;-61
2023/01/07 17:50:52;;;;;;;2.38;2.17;;;;;;;10.09;69.06;99684.91;10343159;28;20044;-61
2023/01/07 17:55:54;;;;;;;3.15;2.80;;;;;;;10.08;69.14;99667.25;10325952;28;20060;-61
2023/01/07 18:00:58;;;;;;;3.78;2.80;;;;;;;10.01;69.52;99671.41;10346040;28;20292;-61
2023/01/07 18:06:00;;;;;;;7.78;3.50;;;;;;;9.98;69.67;99692.97;10332036;28;20045;-61
2023/01/07 18:16:23;;;;;;;3.08;2.55;;;;;;;9.91;70.35;99671.38;10327615;28;20053;-61
2023/01/07 18:21:24;;;;;;;6.13;3.90;;;;;;;9.83;70.21;99669.41;10340295;28;20637;-61
2023/01/07 18:26:26;;;;;;;4.47;4.05;;;;;;;9.74;70.76;99662.19;10339129;28;20077;-61
2023/01/07 18:31:27;;;;;;;7.95;5.65;;;;;;;9.70;71.05;99663.47;10331208;28;20064;-60
2023/01/07 18:36:29;;;;;;;8.70;5.97;;;;;;;9.65;71.27;99668.31;10327518;28;20053;-61
2023/01/07 18:41:32;;;;;;;6.78;5.25;;;;;;;9.62;71.30;99679.22;10333115;28;20101;-60
2023/01/07 18:46:33;;;;;;;6.18;4.95;;;;;;;9.58;71.50;99665.34;10328482;28;20054;-61
2023/01/07 18:51:35;;;;;;;6.82;5.63;;;;;;;9.62;71.72;99663.25;10331144;28;20062;-60
2023/01/07 18:56:36;;;;;;;6.47;4.90;;;;;;;9.58;71.74;99644.09;10332149;28;20189;-60
2023/01/07 19:01:38;;;;;;;6.75;5.05;;;;;;;9.54;71.74;99642.66;10331071;28;20743;-60
2023/01/07 19:06:40;;;;;;;5.75;4.80;;;;;;;9.49;71.99;99634.28;10338464;28;20053;-60
2023/01/07 19:11:41;;;;;;;5.95;5.32;;;;;;;9.50;71.91;99647.41;10319895;28;20114;-60
2023/01/07 19:16:42;;;;;;;5.00;4.53;;;;;;;9.51;72.00;99651.75;10329466;28;20079;-60
2023/01/07 19:21:46;;;;;;;6.00;4.55;;;;;;;9.43;72.03;99638.28;10326873;28;20168;-60
2023/01/07 19:26:49;;;;;;;5.83;4.80;;;;;;;9.44;72.39;99631.16;10330472;28;20716;-55
2023/01/07 19:31:51;;;;;;;6.78;4.95;;;;;;;9.39;72.04;99618.25;10324250;28;20060;-60
2023/01/07 19:36:53;;;;;;;5.45;4.95;;;;;;;9.33;72.65;99621.44;10324195;28;20056;-60
2023/01/07 19:41:55;;;;;;;7.25;5.88;;;;;;;9.28;72.83;99615.69;10326604;28;20053;-60
2023/01/07 19:46:56;;;;;;;9.18;7.38;;;;;;;9.25;72.77;99607.97;10322710;28;20128;-63
2023/01/07 19:51:58;;;;;;;9.18;7.82;;;;;;;9.21;73.24;99610.03;10334268;28;20065;-60
2023/01/07 19:56:59;;;;;;;8.57;7.78;;;;;;;9.18;73.26;99608.50;10325352;28;20070;-60
2023/01/07 20:02:02;;;;;;;7.20;6.50;;;;;;;9.27;73.38;99603.38;10327537;28;20068;-60
2023/01/07 20:07:04;;;;;;;7.88;7.07;;;;;;;9.29;72.73;99602.28;10327145;28;20195;-61
2023/01/07 20:12:06;;;;;;;8.07;6.88;;;;;;;9.27;72.76;99608.69;10327334;28;20064;-61
2023/01/07 20:17:07;;;;;;;7.85;6.95;;;;;;;9.27;73.23;99609.53;10324530;28;20183;-61
2023/01/07 20:22:09;;;;;;;7.50;6.80;;;;;;;9.29;73.26;99606.72;10336417;28;20118;-60
2023/01/07 20:27:11;;;;;;;7.57;6.53;;;;;;;9.20;73.17;99598.59;10325266;28;20057;-61
2023/01/07 20:32:13;;;;;;;6.88;6.18;;;;;;;9.11;73.46;99599.38;10311759;28;20102;-60
2023/01/07 20:37:14;;;;;;;7.53;6.60;;;;;;;9.09;73.93;99605.78;10313596;28;20710;-61
2023/01/07 20:42:16;;;;;;;8.18;7.28;;;;;;;9.08;74.31;99596.97;10322973;28;20509;-61
2023/01/07 20:47:17;;;;;;;7.63;6.82;;;;;;;8.99;74.24;99590.63;10328363;28;20046;-60
2023/01/07 20:52:20;;;;;;;8.32;7.45;;;;;;;9.00;74.24;99602.09;10330973;28;20063;-60
2023/01/07 20:57:22;;;;;;;7.07;6.28;;;;;;;9.02;74.22;99586.88;10311866;28;20464;-61
2023/01/07 21:02:24;;;;;;;7.72;6.93;;;;;;;9.18;73.47;99589.06;10336272;28;20059;-61
2023/01/07 21:07:25;;;;;;;7.50;6.80;;;;;;;9.17;73.46;99577.63;10327553;28;20058;-61
2023/01/07 21:12:28;;;;;;;9.38;8.45;;;;;;;9.16;73.50;99567.97;10321214;28;20120;-61
2023/01/07 21:17:30;;;;;;;10.05;7.78;;;;;;;9.20;73.69;99561.41;10327066;28;20060;-61
2023/01/07 21:22:34;;;;;;;10.38;7.05;;;;;;;9.18;73.66;99563.34;10324453;28;20053;-65
2023/01/07 21:27:36;;;;;;;8.70;7.90;;;;;;;9.16;73.82;99562.66;10303401;28;20966;-60
2023/01/07 21:32:38;;;;;;;8.40;7.60;;;;;;;9.20;73.48;99569.38;10314319;28;20053;-62
2023/01/07 21:37:40;;;;;;;7.90;6.80;;;;;;;9.27;73.56;99572.34;10328239;28;20103;-62
2023/01/07 21:42:41;;;;;;;8.30;7.28;;;;;;;9.30;73.18;99573.91;10318105;28;20062;-62
2023/01/07 21:47:43;;;;;;;7.93;7.13;;;;;;;9.33;73.14;99560.34;10317930;28;20057;-61
2023/01/07 21:52:44;;;;;;;8.30;7.50;;;;;;;9.32;73.05;99537.41;10317564;28;20147;-61
2023/01/07 21:57:46;;;;;;;7.68;6.88;;;;;;;9.32;73.20;99524.13;10331034;28;20132;-61
2023/01/07 22:02:47;;;;;;;7.55;6.40;;;;;;;9.27;73.13;99523.72;10333396;28;20312;-61
2023/01/07 22:07:49;;;;;;;7.28;6.55;;;;;;;9.22;73.24;99512.63;10325843;28;20061;-61
2023/01/07 22:12:50;;;;;;;8.43;7.05;;;;;;;9.20;73.28;99512.75;10327944;28;20068;-61
2023/01/07 22:17:53;;;;;;;7.90;7.10;;;;;;;9.18;73.50;99523.50;10332678;28;20941;-60
2023/01/07 22:22:55;;;;;;;7.40;6.60;;;;;;;9.20;73.67;99524.25;10318825;28;20056;-60
2023/01/07 22:27:58;;;;;;;7.22;6.47;;;;;;;9.20;73.67;99523.38;10324225;28;20726;-61
2023/01/07 22:33:00;;;;;;;7.85;7.15;;;;;;;9.28;73.87;99526.22;10323043;28;20690;-61
2023/01/07 22:38:02;;;;;;;7.05;6.30;;;;;;;9.36;73.42;99528.22;10332567;28;20058;-61
2023/01/07 22:43:07;;;;;;;7.32;6.40;;;;;;;9.37;73.73;99530.75;10329681;28;20072;-61
2023/01/07 22:48:12;;;;;;;7.43;6.65;;;;;;;9.49;73.68;99526.16;10341515;28;20091;-60
2023/01/07 22:53:14;;;;;;;10.75;7.65;;;;;;;9.49;73.63;99523.50;10340593;28;20324;-67
2023/01/07 22:58:16;;;;;;;7.53;6.78;;;;;;;9.46;73.49;99513.16;10349210;28;20049;-61
2023/01/07 23:03:19;;;;;;;6.60;5.78;;;;;;;9.61;73.89;99537.53;10342019;28;20046;-63
2023/01/07 23:08:20;;;;;;;7.13;5.78;;;;;;;9.76;74.50;99530.03;10331674;28;20049;-60
2023/01/07 23:13:22;;;;;;;4.35;3.95;;;;;;;9.70;75.85;99504.84;10350117;28;20049;-60
2023/01/07 23:18:23;;;;;;;7.03;4.60;;;;;;;9.76;77.23;99500.81;10326705;28;20049;-60
2023/01/07 23:23:24;;;;;;;6.53;5.43;;;;;;;9.75;77.94;99499.09;10351635;28;20514;-60
2023/01/07 23:28:26;;;;;;;6.47;5.13;;;;;;;9.75;78.18;99499.09;10337206;28;20083;-60
2023/01/07 23:33:27;;;;;;;5.35;4.85;;;;;;;9.75;79.16;99491.13;10324402;28;20053;-60
2023/01/07 23:38:29;;;;;;;4.63;4.10;;;;;;;9.68;79.62;99476.72;10346721;28;20204;-60
2023/01/07 23:43:32;;;;;;;4.60;4.15;;;;;;;9.62;81.40;99466.63;10330659;28;20146;-61
2023/01/07 23:48:35;;;;;;;5.57;4.63;;;;;;;9.68;82.34;99452.78;10340138;28;20053;-61
2023/01/07 23:53:38;;;;;;;4.50;3.47;;;;;;;9.79;82.08;99442.06;10329446;28;20057;-61
2023/01/07 23:58:39;;;;;;;4.25;3.85;;;;;;;9.81;82.32;99440.09;10337451;28;20717;-61
